createdAt,value
2023-04-18T00:00:18.340Z,7.80
2023-04-18T00:00:49.690Z,7.80
2023-04-18T00:01:21.792Z,7.79
2023-04-18T00:01:53.353Z,7.81
2023-04-18T00:02:26.312Z,7.80
2023-04-18T00:02:59.216Z,7.76
2023-04-18T00:03:31.823Z,7.76
2023-04-18T00:04:04.855Z,7.76
2023-04-18T00:04:36.462Z,7.76
2023-04-18T00:05:08.562Z,7.77
2023-04-18T00:05:40.274Z,7.76
2023-04-18T00:06:13.690Z,7.76
2023-04-18T00:06:46.334Z,7.76
2023-04-18T00:07:17.863Z,7.78
2023-04-18T00:07:50.045Z,7.78
2023-04-18T00:08:21.535Z,7.77
2023-04-18T00:08:52.946Z,7.78
2023-04-18T00:09:25.140Z,7.76
2023-04-18T00:09:56.602Z,7.76
2023-04-18T00:10:27.975Z,7.77
2023-04-18T00:10:59.442Z,7.77
2023-04-18T00:11:30.794Z,7.77
2023-04-18T00:12:04.089Z,7.76
2023-04-18T00:12:36.327Z,7.76
2023-04-18T00:13:08.115Z,7.74
2023-04-18T00:13:40.525Z,7.74
2023-04-18T00:14:12.242Z,7.72
2023-04-18T00:14:43.997Z,7.70
2023-04-18T00:15:15.374Z,7.69
2023-04-18T00:15:46.849Z,7.68
2023-04-18T00:16:18.420Z,7.69
2023-04-18T00:16:50.081Z,7.69
2023-04-18T00:17:22.200Z,7.67
2023-04-18T00:17:56.777Z,7.67
2023-04-18T00:18:28.393Z,7.66
2023-04-18T00:18:59.814Z,7.63
2023-04-18T00:19:31.200Z,7.59
2023-04-18T00:20:07.080Z,7.57
2023-04-18T00:20:39.157Z,7.56
2023-04-18T00:21:10.620Z,7.54
2023-04-18T00:21:44.973Z,7.54
2023-04-18T00:22:17.395Z,7.54
2023-04-18T00:22:48.960Z,7.54
2023-04-18T00:23:22.243Z,7.54
2023-04-18T00:23:53.839Z,7.53
2023-04-18T00:24:25.296Z,7.52
2023-04-18T00:24:56.812Z,7.49
2023-04-18T00:25:28.321Z,7.46
2023-04-18T00:25:59.955Z,7.46
2023-04-18T00:26:31.564Z,7.46
2023-04-18T00:27:03.293Z,7.43
2023-04-18T00:27:34.634Z,7.41
2023-04-18T00:28:06.220Z,7.38
2023-04-18T00:28:37.964Z,7.38
2023-04-18T00:29:09.393Z,7.38
2023-04-18T00:29:41.209Z,7.38
2023-04-18T00:30:13.003Z,7.38
2023-04-18T00:30:45.343Z,7.35
2023-04-18T00:31:17.043Z,7.34
2023-04-18T00:31:48.464Z,7.32
2023-04-18T00:32:20.014Z,7.31
2023-04-18T00:32:51.818Z,7.29
2023-04-18T00:33:23.410Z,7.31
2023-04-18T00:33:54.832Z,7.28
2023-04-18T00:34:26.521Z,7.27
2023-04-18T00:34:57.998Z,7.25
2023-04-18T00:35:29.433Z,7.24
2023-04-18T00:36:00.881Z,7.23
2023-04-18T00:36:32.394Z,7.22
2023-04-18T00:37:03.790Z,7.22
2023-04-18T00:37:35.205Z,7.20
2023-04-18T00:38:06.598Z,7.18
2023-04-18T00:38:38.084Z,7.17
2023-04-18T00:39:09.438Z,7.17
2023-04-18T00:39:40.811Z,7.17
2023-04-18T00:40:12.274Z,7.15
2023-04-18T00:40:43.695Z,7.13
2023-04-18T00:41:15.468Z,7.13
2023-04-18T00:41:46.999Z,7.13
2023-04-18T00:42:18.439Z,7.14
2023-04-18T00:42:50.059Z,7.13
2023-04-18T00:43:23.810Z,7.12
2023-04-18T00:43:55.743Z,7.11
2023-04-18T00:44:27.159Z,7.10
2023-04-18T00:44:58.529Z,7.09
2023-04-18T00:45:30.142Z,7.08
2023-04-18T00:46:01.824Z,7.05
2023-04-18T00:46:33.463Z,7.04
2023-04-18T00:47:05.256Z,7.02
2023-04-18T00:47:36.699Z,7.00
2023-04-18T00:48:09.033Z,6.99
2023-04-18T00:48:41.398Z,6.99
2023-04-18T00:49:12.968Z,6.98
2023-04-18T00:49:45.581Z,6.99
2023-04-18T00:50:17.996Z,6.99
2023-04-18T00:50:49.363Z,7.00
2023-04-18T00:51:21.383Z,7.01
2023-04-18T00:51:54.676Z,7.00
2023-04-18T00:52:27.292Z,7.01
2023-04-18T00:52:58.866Z,7.00
2023-04-18T00:53:30.750Z,6.99
2023-04-18T00:54:06.165Z,6.99
2023-04-18T00:54:38.640Z,6.98
2023-04-18T00:55:10.569Z,6.99
2023-04-18T00:55:42.156Z,6.99
2023-04-18T00:56:14.120Z,6.99
2023-04-18T00:56:46.999Z,7.00
2023-04-18T00:57:18.600Z,7.00
2023-04-18T00:57:50.803Z,6.98
2023-04-18T00:58:22.419Z,6.98
2023-04-18T00:58:54.244Z,6.97
2023-04-18T00:59:25.733Z,6.98
2023-04-18T00:59:57.418Z,6.97
2023-04-18T01:00:28.901Z,6.96
2023-04-18T01:01:00.385Z,6.96
2023-04-18T01:01:31.797Z,6.95
2023-04-18T01:02:04.098Z,6.94
2023-04-18T01:02:41.054Z,6.95
2023-04-18T01:03:14.271Z,6.96
2023-04-18T01:03:45.985Z,6.93
2023-04-18T01:04:17.613Z,6.93
2023-04-18T01:04:49.441Z,6.91
2023-04-18T01:05:22.735Z,6.89
2023-04-18T01:05:55.304Z,6.86
2023-04-18T01:06:27.259Z,6.84
2023-04-18T01:06:59.229Z,6.82
2023-04-18T01:07:33.486Z,6.81
2023-04-18T01:08:04.955Z,6.81
2023-04-18T01:08:36.419Z,6.81
2023-04-18T01:09:07.895Z,6.81
2023-04-18T01:09:40.428Z,6.81
2023-04-18T01:10:12.137Z,6.82
2023-04-18T01:10:43.578Z,6.79
2023-04-18T01:11:15.148Z,6.77
2023-04-18T01:11:47.353Z,6.77
2023-04-18T01:12:18.977Z,6.75
2023-04-18T01:12:50.391Z,6.75
2023-04-18T01:13:21.731Z,6.74
2023-04-18T01:14:03.934Z,6.72
2023-04-18T01:14:35.345Z,6.69
2023-04-18T01:15:08.027Z,6.67
2023-04-18T01:15:41.191Z,6.66
2023-04-18T01:16:13.275Z,6.62
2023-04-18T01:16:44.693Z,6.61
2023-04-18T01:17:16.314Z,6.62
2023-04-18T01:17:47.969Z,6.63
2023-04-18T01:18:20.735Z,6.63
2023-04-18T01:18:52.612Z,6.60
2023-04-18T01:19:24.130Z,6.59
2023-04-18T01:19:56.856Z,6.58
2023-04-18T01:20:28.558Z,6.58
2023-04-18T01:21:00.534Z,6.58
2023-04-18T01:21:37.073Z,6.57
2023-04-18T01:22:08.802Z,6.57
2023-04-18T01:22:40.384Z,6.57
2023-04-18T01:23:11.819Z,6.56
2023-04-18T01:23:43.783Z,6.55
2023-04-18T01:24:17.308Z,6.55
2023-04-18T01:24:48.635Z,6.56
2023-04-18T01:25:20.001Z,6.57
2023-04-18T01:25:51.800Z,6.58
2023-04-18T01:26:23.491Z,6.59
2023-04-18T01:26:54.946Z,6.59
2023-04-18T01:27:26.306Z,6.60
2023-04-18T01:27:58.761Z,6.59
2023-04-18T01:28:30.389Z,6.56
2023-04-18T01:29:02.008Z,6.54
2023-04-18T01:29:33.506Z,6.54
2023-04-18T01:30:05.632Z,6.51
2023-04-18T01:30:36.997Z,6.49
2023-04-18T01:31:08.453Z,6.47
2023-04-18T01:31:41.223Z,6.45
2023-04-18T01:32:12.675Z,6.45
2023-04-18T01:32:44.951Z,6.45
2023-04-18T01:33:16.416Z,6.43
2023-04-18T01:33:47.808Z,6.44
2023-04-18T01:34:19.293Z,6.45
2023-04-18T01:34:50.769Z,6.46
2023-04-18T01:35:22.242Z,6.46
2023-04-18T01:35:53.653Z,6.46
2023-04-18T01:36:25.212Z,6.46
2023-04-18T01:36:56.824Z,6.45
2023-04-18T01:37:28.194Z,6.45
2023-04-18T01:38:00.618Z,6.45
2023-04-18T01:38:33.012Z,6.43
2023-04-18T01:39:04.639Z,6.43
2023-04-18T01:39:36.035Z,6.43
2023-04-18T01:40:08.196Z,6.43
2023-04-18T01:40:39.559Z,6.42
2023-04-18T01:41:11.046Z,6.41
2023-04-18T01:41:42.686Z,6.41
2023-04-18T01:42:14.049Z,6.40
2023-04-18T01:42:45.542Z,6.39
2023-04-18T01:43:17.244Z,6.38
2023-04-18T01:43:48.686Z,6.37
2023-04-18T01:44:20.226Z,6.36
2023-04-18T01:44:52.064Z,6.38
2023-04-18T01:45:23.586Z,6.36
2023-04-18T01:45:54.943Z,6.33
2023-04-18T01:46:26.955Z,6.31
2023-04-18T01:46:58.441Z,6.28
2023-04-18T01:47:29.920Z,6.28
2023-04-18T01:48:01.456Z,6.28
2023-04-18T01:48:33.342Z,6.28
2023-04-18T01:49:05.081Z,6.30
2023-04-18T01:49:36.502Z,6.31
2023-04-18T01:50:08.376Z,6.31
2023-04-18T01:50:39.729Z,6.32
2023-04-18T01:51:11.104Z,6.31
2023-04-18T01:51:43.126Z,6.32
2023-04-18T01:52:14.660Z,6.31
2023-04-18T01:52:46.017Z,6.31
2023-04-18T01:53:18.649Z,6.31
2023-04-18T01:53:50.452Z,6.30
2023-04-18T01:54:22.032Z,6.29
2023-04-18T01:54:53.592Z,6.29
2023-04-18T01:55:24.957Z,6.27
2023-04-18T01:55:58.356Z,6.26
2023-04-18T01:56:29.721Z,6.26
2023-04-18T01:57:01.106Z,6.26
2023-04-18T01:57:34.352Z,6.24
2023-04-18T01:58:05.819Z,6.23
2023-04-18T01:58:37.795Z,6.22
2023-04-18T01:59:09.374Z,6.24
2023-04-18T01:59:40.737Z,6.23
2023-04-18T02:00:12.622Z,6.22
2023-04-18T02:00:44.344Z,6.22
2023-04-18T02:01:15.944Z,6.20
2023-04-18T02:01:47.298Z,6.20
2023-04-18T02:02:18.801Z,6.21
2023-04-18T02:02:50.517Z,6.20
2023-04-18T02:03:22.248Z,6.19
2023-04-18T02:03:54.209Z,6.18
2023-04-18T02:04:26.492Z,6.15
2023-04-18T02:04:57.878Z,6.14
2023-04-18T02:05:29.553Z,6.13
2023-04-18T02:06:02.708Z,6.12
2023-04-18T02:06:34.381Z,6.13
2023-04-18T02:07:05.783Z,6.13
2023-04-18T02:07:37.196Z,6.13
2023-04-18T02:08:08.687Z,6.14
2023-04-18T02:08:40.319Z,6.12
2023-04-18T02:09:12.011Z,6.10
2023-04-18T02:09:43.404Z,6.10
2023-04-18T02:10:15.511Z,6.09
2023-04-18T02:10:47.104Z,6.08
2023-04-18T02:11:18.643Z,6.08
2023-04-18T02:11:50.540Z,6.09
2023-04-18T02:12:22.212Z,6.09
2023-04-18T02:12:53.644Z,6.09
2023-04-18T02:13:25.046Z,6.08
2023-04-18T02:13:56.557Z,6.09
2023-04-18T02:14:32.396Z,6.08
2023-04-18T02:15:04.197Z,6.10
2023-04-18T02:15:35.867Z,6.09
2023-04-18T02:16:13.033Z,6.07
2023-04-18T02:16:44.659Z,6.06
2023-04-18T02:17:16.054Z,6.06
2023-04-18T02:17:50.537Z,6.05
2023-04-18T02:18:24.685Z,6.03
2023-04-18T02:18:56.422Z,6.02
2023-04-18T02:19:29.351Z,6.01
2023-04-18T02:20:01.200Z,5.98
2023-04-18T02:20:33.650Z,5.99
2023-04-18T02:21:05.072Z,5.99
2023-04-18T02:21:36.623Z,5.98
2023-04-18T02:22:07.991Z,5.97
2023-04-18T02:22:39.469Z,5.96
2023-04-18T02:23:11.141Z,5.94
2023-04-18T02:23:42.732Z,5.94
2023-04-18T02:24:14.374Z,5.94
2023-04-18T02:24:46.233Z,5.93
2023-04-18T02:25:18.590Z,5.92
2023-04-18T02:25:50.696Z,5.92
2023-04-18T02:26:22.798Z,5.93
2023-04-18T02:26:54.243Z,5.93
2023-04-18T02:27:25.888Z,5.95
2023-04-18T02:27:58.177Z,5.95
2023-04-18T02:28:29.545Z,5.94
2023-04-18T02:29:00.960Z,5.92
2023-04-18T02:29:32.356Z,5.92
2023-04-18T02:30:04.282Z,5.91
2023-04-18T02:30:35.697Z,5.92
2023-04-18T02:31:07.770Z,5.92
2023-04-18T02:31:40.610Z,5.93
2023-04-18T02:32:12.366Z,5.92
2023-04-18T02:32:43.949Z,5.93
2023-04-18T02:33:15.455Z,5.92
2023-04-18T02:33:48.059Z,5.92
2023-04-18T02:34:19.598Z,5.93
2023-04-18T02:34:51.167Z,5.93
2023-04-18T02:35:23.380Z,5.93
2023-04-18T02:35:54.779Z,5.93
2023-04-18T02:36:27.975Z,5.91
2023-04-18T02:36:59.384Z,5.91
2023-04-18T02:37:30.741Z,5.91
2023-04-18T02:38:02.199Z,5.90
2023-04-18T02:38:33.589Z,5.89
2023-04-18T02:39:04.976Z,5.88
2023-04-18T02:39:36.750Z,5.88
2023-04-18T02:40:08.998Z,5.88
2023-04-18T02:40:40.512Z,5.87
2023-04-18T02:41:15.355Z,5.86
2023-04-18T02:41:46.833Z,5.85
2023-04-18T02:42:18.217Z,5.82
2023-04-18T02:42:49.750Z,5.80
2023-04-18T02:43:21.166Z,5.78
2023-04-18T02:43:52.666Z,5.76
2023-04-18T02:44:24.057Z,5.75
2023-04-18T02:44:55.422Z,5.75
2023-04-18T02:45:26.886Z,5.74
2023-04-18T02:45:58.456Z,5.72
2023-04-18T02:46:30.065Z,5.72
2023-04-18T02:47:01.604Z,5.72
2023-04-18T02:47:37.729Z,5.72
2023-04-18T02:48:18.729Z,5.72
2023-04-18T02:48:50.292Z,5.73
2023-04-18T02:49:21.834Z,5.73
2023-04-18T02:49:53.398Z,5.72
2023-04-18T02:50:25.189Z,5.72
2023-04-18T02:51:03.305Z,5.71
2023-04-18T02:51:34.733Z,5.70
2023-04-18T02:52:06.630Z,5.69
2023-04-18T02:52:38.007Z,5.68
2023-04-18T02:53:09.476Z,5.67
2023-04-18T02:53:40.935Z,5.66
2023-04-18T02:54:12.620Z,5.64
2023-04-18T02:54:44.154Z,5.65
2023-04-18T02:55:15.928Z,5.64
2023-04-18T02:55:47.269Z,5.64
2023-04-18T02:56:18.781Z,5.62
2023-04-18T02:56:54.235Z,5.61
2023-04-18T02:57:25.840Z,5.61
2023-04-18T02:57:57.571Z,5.58
2023-04-18T02:58:29.351Z,5.59
2023-04-18T02:59:00.693Z,5.58
2023-04-18T02:59:32.232Z,5.58
2023-04-18T03:00:04.568Z,5.58
2023-04-18T03:00:36.280Z,5.59
2023-04-18T03:01:07.917Z,5.59
2023-04-18T03:01:39.324Z,5.57
2023-04-18T03:02:10.753Z,5.57
2023-04-18T03:02:42.218Z,5.57
2023-04-18T03:03:13.672Z,5.55
2023-04-18T03:03:45.465Z,5.55
2023-04-18T03:04:16.985Z,5.54
2023-04-18T03:04:48.357Z,5.52
2023-04-18T03:05:20.245Z,5.52
2023-04-18T03:05:51.607Z,5.49
2023-04-18T03:06:23.013Z,5.47
2023-04-18T03:06:56.141Z,5.46
2023-04-18T03:07:27.751Z,5.44
2023-04-18T03:07:59.167Z,5.44
2023-04-18T03:08:30.652Z,5.44
2023-04-18T03:09:03.838Z,5.43
2023-04-18T03:09:35.592Z,5.42
2023-04-18T03:10:07.510Z,5.41
2023-04-18T03:10:39.667Z,5.42
2023-04-18T03:11:11.371Z,5.43
2023-04-18T03:11:42.807Z,5.44
2023-04-18T03:12:14.234Z,5.43
2023-04-18T03:12:47.577Z,5.44
2023-04-18T03:13:18.986Z,5.41
2023-04-18T03:13:50.438Z,5.41
2023-04-18T03:14:21.838Z,5.40
2023-04-18T03:14:53.225Z,5.40
2023-04-18T03:15:24.843Z,5.38
2023-04-18T03:15:56.445Z,5.39
2023-04-18T03:16:27.965Z,5.39
2023-04-18T03:16:59.600Z,5.40
2023-04-18T03:17:31.283Z,5.40
2023-04-18T03:18:02.823Z,5.39
2023-04-18T03:18:34.300Z,5.39
2023-04-18T03:19:05.902Z,5.38
2023-04-18T03:19:37.481Z,5.38
2023-04-18T03:20:10.509Z,5.37
2023-04-18T03:20:42.096Z,5.34
2023-04-18T03:21:14.690Z,5.33
2023-04-18T03:21:46.258Z,5.34
2023-04-18T03:22:17.748Z,5.31
2023-04-18T03:22:49.150Z,5.30
2023-04-18T03:23:20.531Z,5.29
2023-04-18T03:23:53.068Z,5.29
2023-04-18T03:24:24.507Z,5.28
2023-04-18T03:24:56.462Z,5.28
2023-04-18T03:25:27.846Z,5.26
2023-04-18T03:25:59.565Z,5.25
2023-04-18T03:26:31.219Z,5.25
2023-04-18T03:27:02.712Z,5.24
2023-04-18T03:27:34.141Z,5.24
2023-04-18T03:28:05.584Z,5.25
2023-04-18T03:28:37.010Z,5.23
2023-04-18T03:29:08.623Z,5.22
2023-04-18T03:29:40.242Z,5.22
2023-04-18T03:30:11.790Z,5.20
2023-04-18T03:30:43.346Z,5.18
2023-04-18T03:31:14.744Z,5.18
2023-04-18T03:31:46.503Z,5.17
2023-04-18T03:32:18.346Z,5.16
2023-04-18T03:32:49.948Z,5.15
2023-04-18T03:33:22.430Z,5.15
2023-04-18T03:33:53.826Z,5.15
2023-04-18T03:34:25.284Z,5.14
2023-04-18T03:34:56.856Z,5.12
2023-04-18T03:35:28.738Z,5.12
2023-04-18T03:36:00.195Z,5.11
2023-04-18T03:36:31.581Z,5.10
2023-04-18T03:37:02.992Z,5.09
2023-04-18T03:37:34.341Z,5.09
2023-04-18T03:38:05.875Z,5.09
2023-04-18T03:38:40.428Z,5.09
2023-04-18T03:39:11.785Z,5.09
2023-04-18T03:39:43.177Z,5.08
2023-04-18T03:40:14.652Z,5.07
2023-04-18T03:40:46.279Z,5.07
2023-04-18T03:41:17.693Z,5.07
2023-04-18T03:41:49.839Z,5.07
2023-04-18T03:42:21.189Z,5.06
2023-04-18T03:42:52.853Z,5.06
2023-04-18T03:43:24.266Z,5.05
2023-04-18T03:43:55.678Z,5.05
2023-04-18T03:44:27.230Z,5.03
2023-04-18T03:44:58.607Z,5.01
2023-04-18T03:45:30.198Z,5.00
2023-04-18T03:46:02.337Z,4.99
2023-04-18T03:46:33.798Z,4.97
2023-04-18T03:47:05.315Z,4.97
2023-04-18T03:47:37.219Z,4.97
2023-04-18T03:48:08.634Z,4.95
2023-04-18T03:48:40.184Z,4.94
2023-04-18T03:49:11.747Z,4.94
2023-04-18T03:49:43.297Z,4.95
2023-04-18T03:50:14.669Z,4.95
2023-04-18T03:50:46.166Z,4.93
2023-04-18T03:51:17.658Z,4.93
2023-04-18T03:51:49.275Z,4.92
2023-04-18T03:52:21.044Z,4.93
2023-04-18T03:52:52.744Z,4.93
2023-04-18T03:53:24.283Z,4.92
2023-04-18T03:53:55.684Z,4.90
2023-04-18T03:54:27.307Z,4.90
2023-04-18T03:54:58.749Z,4.89
2023-04-18T03:55:30.157Z,4.88
2023-04-18T03:56:01.923Z,4.88
2023-04-18T03:56:33.513Z,4.85
2023-04-18T03:57:04.881Z,4.86
2023-04-18T03:57:36.355Z,4.87
2023-04-18T03:58:07.912Z,4.87
2023-04-18T03:58:39.452Z,4.88
2023-04-18T03:59:12.052Z,4.87
2023-04-18T03:59:43.920Z,4.88
2023-04-18T04:00:16.387Z,4.87
2023-04-18T04:00:47.767Z,4.88
2023-04-18T04:01:19.323Z,4.89
2023-04-18T04:01:50.939Z,4.89
2023-04-18T04:02:22.599Z,4.87
2023-04-18T04:02:54.310Z,4.86
2023-04-18T04:03:27.922Z,4.85
2023-04-18T04:03:59.945Z,4.85
2023-04-18T04:04:31.446Z,4.86
2023-04-18T04:05:03.180Z,4.86
2023-04-18T04:05:34.613Z,4.85
2023-04-18T04:06:06.738Z,4.86
2023-04-18T04:06:38.222Z,4.86
2023-04-18T04:07:09.657Z,4.86
2023-04-18T04:07:41.108Z,4.85
2023-04-18T04:08:14.149Z,4.86
2023-04-18T04:08:45.807Z,4.85
2023-04-18T04:09:17.336Z,4.85
2023-04-18T04:09:48.741Z,4.86
2023-04-18T04:10:20.540Z,4.87
2023-04-18T04:10:52.081Z,4.87
2023-04-18T04:11:23.830Z,4.88
2023-04-18T04:11:55.300Z,4.87
2023-04-18T04:12:27.746Z,4.86
2023-04-18T04:12:59.160Z,4.85
2023-04-18T04:13:30.510Z,4.85
2023-04-18T04:14:02.175Z,4.84
2023-04-18T04:14:33.632Z,4.85
2023-04-18T04:15:05.731Z,4.85
2023-04-18T04:15:38.452Z,4.86
2023-04-18T04:16:09.966Z,4.88
2023-04-18T04:16:41.762Z,4.88
2023-04-18T04:17:13.197Z,4.89
2023-04-18T04:17:44.549Z,4.89
2023-04-18T04:18:15.982Z,4.89
2023-04-18T04:18:47.498Z,4.91
2023-04-18T04:19:18.967Z,4.91
2023-04-18T04:19:51.234Z,4.93
2023-04-18T04:20:26.446Z,4.93
2023-04-18T04:20:59.145Z,4.94
2023-04-18T04:21:31.433Z,4.95
2023-04-18T04:22:02.792Z,4.95
2023-04-18T04:22:34.738Z,4.96
2023-04-18T04:23:06.996Z,4.97
2023-04-18T04:23:38.608Z,4.96
2023-04-18T04:24:10.159Z,4.97
2023-04-18T04:24:42.653Z,4.96
2023-04-18T04:25:14.262Z,4.96
2023-04-18T04:25:46.335Z,4.96
2023-04-18T04:26:17.753Z,4.96
2023-04-18T04:26:50.864Z,4.95
2023-04-18T04:27:22.661Z,4.96
2023-04-18T04:27:54.891Z,4.97
2023-04-18T04:28:26.389Z,4.97
2023-04-18T04:28:58.111Z,4.98
2023-04-18T04:29:29.517Z,4.98
2023-04-18T04:30:02.516Z,5.00
2023-04-18T04:30:33.924Z,5.00
2023-04-18T04:31:06.753Z,5.01
2023-04-18T04:31:38.180Z,5.02
2023-04-18T04:32:09.729Z,5.04
2023-04-18T04:32:41.226Z,5.04
2023-04-18T04:33:12.948Z,5.03
2023-04-18T04:33:44.852Z,5.05
2023-04-18T04:34:16.756Z,5.05
2023-04-18T04:34:49.364Z,5.06
2023-04-18T04:35:20.701Z,5.09
2023-04-18T04:35:52.694Z,5.07
2023-04-18T04:36:27.106Z,5.09
2023-04-18T04:36:58.457Z,5.07
2023-04-18T04:37:29.834Z,5.09
2023-04-18T04:38:01.639Z,5.08
2023-04-18T04:38:33.443Z,5.10
2023-04-18T04:39:05.278Z,5.10
2023-04-18T04:39:36.632Z,5.10
2023-04-18T04:40:11.731Z,5.09
2023-04-18T04:40:43.525Z,5.10
2023-04-18T04:41:15.283Z,5.10
2023-04-18T04:41:47.121Z,5.10
2023-04-18T04:42:19.369Z,5.10
2023-04-18T04:42:53.989Z,5.11
2023-04-18T04:43:26.033Z,5.10
2023-04-18T04:43:57.419Z,5.11
2023-04-18T04:44:29.373Z,5.10
2023-04-18T04:45:01.633Z,5.10
2023-04-18T04:45:33.635Z,5.09
2023-04-18T04:46:07.529Z,5.10
2023-04-18T04:46:40.277Z,5.10
2023-04-18T04:47:11.872Z,5.09
2023-04-18T04:47:43.238Z,5.11
2023-04-18T04:48:15.244Z,5.11
2023-04-18T04:48:46.728Z,5.12
2023-04-18T04:49:18.403Z,5.14
2023-04-18T04:49:49.746Z,5.15
2023-04-18T04:50:21.379Z,5.15
2023-04-18T04:50:54.964Z,5.16
2023-04-18T04:51:28.087Z,5.16
2023-04-18T04:52:01.428Z,5.17
2023-04-18T04:52:33.686Z,5.18
2023-04-18T04:53:06.400Z,5.19
2023-04-18T04:53:37.869Z,5.19
2023-04-18T04:54:09.244Z,5.20
2023-04-18T04:54:40.637Z,5.21
2023-04-18T04:55:12.226Z,5.21
2023-04-18T04:55:43.734Z,5.22
2023-04-18T04:56:15.162Z,5.21
2023-04-18T04:56:46.580Z,5.22
2023-04-18T04:57:17.993Z,5.22
2023-04-18T04:57:49.488Z,5.24
2023-04-18T04:58:21.059Z,5.25
2023-04-18T04:58:53.713Z,5.24
2023-04-18T04:59:25.145Z,5.24
2023-04-18T04:59:56.561Z,5.24
2023-04-18T05:00:28.827Z,5.24
2023-04-18T05:01:00.559Z,5.24
2023-04-18T05:01:32.030Z,5.24
2023-04-18T05:02:03.580Z,5.23
2023-04-18T05:02:35.267Z,5.25
2023-04-18T05:03:08.219Z,5.24
2023-04-18T05:03:39.948Z,5.25
2023-04-18T05:04:12.727Z,5.26
2023-04-18T05:04:44.453Z,5.26
2023-04-18T05:05:16.310Z,5.26
2023-04-18T05:05:48.547Z,5.26
2023-04-18T05:06:20.929Z,5.26
2023-04-18T05:06:52.676Z,5.27
2023-04-18T05:07:24.248Z,5.27
2023-04-18T05:07:55.660Z,5.28
2023-04-18T05:08:27.149Z,5.28
2023-04-18T05:09:00.839Z,5.27
2023-04-18T05:09:32.237Z,5.27
2023-04-18T05:10:04.239Z,5.27
2023-04-18T05:10:38.739Z,5.26
2023-04-18T05:11:10.205Z,5.27
2023-04-18T05:11:41.614Z,5.27
2023-04-18T05:12:13.015Z,5.26
2023-04-18T05:12:44.623Z,5.26
2023-04-18T05:13:16.200Z,5.27
2023-04-18T05:13:47.577Z,5.27
2023-04-18T05:14:20.699Z,5.27
2023-04-18T05:14:52.252Z,5.28
2023-04-18T05:15:24.298Z,5.28
2023-04-18T05:15:56.665Z,5.27
2023-04-18T05:16:28.090Z,5.28
2023-04-18T05:16:59.693Z,5.28
2023-04-18T05:17:31.131Z,5.28
2023-04-18T05:18:02.791Z,5.28
2023-04-18T05:18:35.073Z,5.28
2023-04-18T05:19:06.596Z,5.27
2023-04-18T05:19:37.968Z,5.28
2023-04-18T05:20:10.053Z,5.29
2023-04-18T05:20:41.539Z,5.29
2023-04-18T05:21:12.950Z,5.29
2023-04-18T05:21:44.581Z,5.29
2023-04-18T05:22:15.990Z,5.31
2023-04-18T05:22:47.386Z,5.30
2023-04-18T05:24:07.787Z,5.30
2023-04-18T05:24:39.486Z,5.31
2023-04-18T05:25:12.240Z,5.30
2023-04-18T05:25:43.720Z,5.30
2023-04-18T05:26:15.194Z,5.31
2023-04-18T05:26:46.781Z,5.32
2023-04-18T05:27:18.353Z,5.32
2023-04-18T05:27:50.489Z,5.32
2023-04-18T05:28:25.574Z,5.33
2023-04-18T05:28:57.022Z,5.34
2023-04-18T05:29:28.363Z,5.34
2023-04-18T05:29:59.738Z,5.36
2023-04-18T05:30:31.146Z,5.37
2023-04-18T05:31:02.882Z,5.38
2023-04-18T05:31:34.565Z,5.38
2023-04-18T05:32:06.968Z,5.41
2023-04-18T05:32:39.232Z,5.40
2023-04-18T05:33:10.753Z,5.40
2023-04-18T05:33:42.423Z,5.39
2023-04-18T05:34:14.287Z,5.40
2023-04-18T05:34:46.133Z,5.40
2023-04-18T05:35:17.539Z,5.40
2023-04-18T05:35:49.035Z,5.40
2023-04-18T05:36:20.625Z,5.41
2023-04-18T05:36:52.106Z,5.40
2023-04-18T05:37:23.550Z,5.41
2023-04-18T05:37:55.025Z,5.42
2023-04-18T05:38:26.412Z,5.42
2023-04-18T05:38:57.733Z,5.43
2023-04-18T05:39:29.339Z,5.44
2023-04-18T05:40:01.230Z,5.45
2023-04-18T05:40:32.750Z,5.45
2023-04-18T05:41:04.344Z,5.45
2023-04-18T05:41:35.803Z,5.46
2023-04-18T05:42:07.577Z,5.45
2023-04-18T05:42:39.313Z,5.47
2023-04-18T05:43:10.691Z,5.48
2023-04-18T05:43:44.414Z,5.49
2023-04-18T05:44:19.874Z,5.49
2023-04-18T05:44:51.401Z,5.51
2023-04-18T05:45:22.782Z,5.52
2023-04-18T05:45:56.550Z,5.53
2023-04-18T05:46:29.344Z,5.54
2023-04-18T05:47:01.017Z,5.53
2023-04-18T05:47:33.733Z,5.54
2023-04-18T05:48:05.363Z,5.53
2023-04-18T05:48:36.779Z,5.55
2023-04-18T05:49:08.356Z,5.56
2023-04-18T05:49:39.745Z,5.55
2023-04-18T05:50:11.325Z,5.56
2023-04-18T05:50:42.707Z,5.57
2023-04-18T05:51:14.308Z,5.59
2023-04-18T05:51:46.262Z,5.60
2023-04-18T05:52:17.651Z,5.61
2023-04-18T05:52:49.038Z,5.62
2023-04-18T05:53:20.834Z,5.65
2023-04-18T05:53:52.346Z,5.65
2023-04-18T05:54:25.177Z,5.65
2023-04-18T05:54:56.591Z,5.66
2023-04-18T05:55:28.100Z,5.67
2023-04-18T05:55:59.849Z,5.67
2023-04-18T05:56:31.272Z,5.68
2023-04-18T05:57:04.498Z,5.69
2023-04-18T05:57:36.432Z,5.72
2023-04-18T05:58:07.922Z,5.72
2023-04-18T05:58:39.277Z,5.72
2023-04-18T05:59:10.782Z,5.72
2023-04-18T05:59:42.437Z,5.73
2023-04-18T06:00:14.491Z,5.72
2023-04-18T06:00:47.953Z,5.72
2023-04-18T06:01:19.405Z,5.71
2023-04-18T06:01:51.371Z,5.73
2023-04-18T06:02:22.944Z,5.73
2023-04-18T06:02:54.589Z,5.74
2023-04-18T06:03:26.502Z,5.75
2023-04-18T06:03:58.781Z,5.76
2023-04-18T06:04:30.417Z,5.77
2023-04-18T06:05:02.045Z,5.76
2023-04-18T06:05:33.771Z,5.77
2023-04-18T06:06:06.329Z,5.79
2023-04-18T06:06:37.928Z,5.78
2023-04-18T06:07:09.761Z,5.78
2023-04-18T06:07:41.268Z,5.79
2023-04-18T06:08:12.729Z,5.80
2023-04-18T06:08:44.229Z,5.82
2023-04-18T06:09:15.646Z,5.82
2023-04-18T06:09:47.249Z,5.84
2023-04-18T06:10:18.700Z,5.85
2023-04-18T06:10:50.032Z,5.87
2023-04-18T06:11:21.706Z,5.88
2023-04-18T06:11:53.112Z,5.89
2023-04-18T06:12:24.749Z,5.89
2023-04-18T06:12:56.084Z,5.89
2023-04-18T06:13:27.609Z,5.89
2023-04-18T06:13:59.615Z,5.90
2023-04-18T06:14:31.252Z,5.91
2023-04-18T06:15:03.528Z,5.91
2023-04-18T06:15:35.381Z,5.93
2023-04-18T06:16:07.312Z,5.93
2023-04-18T06:16:38.846Z,5.93
2023-04-18T06:17:12.494Z,5.94
2023-04-18T06:17:44.619Z,5.95
2023-04-18T06:18:16.113Z,5.95
2023-04-18T06:18:47.772Z,5.95
2023-04-18T06:19:19.177Z,5.97
2023-04-18T06:19:50.621Z,5.98
2023-04-18T06:20:23.162Z,5.99
2023-04-18T06:20:54.849Z,6.02
2023-04-18T06:21:26.840Z,6.03
2023-04-18T06:21:58.321Z,6.03
2023-04-18T06:22:29.888Z,6.04
2023-04-18T06:23:01.337Z,6.06
2023-04-18T06:23:32.679Z,6.07
2023-04-18T06:24:04.318Z,6.08
2023-04-18T06:24:37.310Z,6.10
2023-04-18T06:25:10.196Z,6.11
2023-04-18T06:25:42.589Z,6.13
2023-04-18T06:26:14.221Z,6.14
2023-04-18T06:26:45.682Z,6.15
2023-04-18T06:27:30.252Z,6.17
2023-04-18T06:28:02.705Z,6.19
2023-04-18T06:28:34.259Z,6.20
2023-04-18T06:29:06.012Z,6.21
2023-04-18T06:29:38.108Z,6.22
2023-04-18T06:30:10.543Z,6.24
2023-04-18T06:30:41.958Z,6.27
2023-04-18T06:31:13.388Z,6.30
2023-04-18T06:31:46.586Z,6.33
2023-04-18T06:32:18.105Z,6.35
2023-04-18T06:32:49.693Z,6.37
2023-04-18T06:33:21.439Z,6.40
2023-04-18T06:33:52.887Z,6.41
2023-04-18T06:34:24.440Z,6.43
2023-04-18T06:34:55.946Z,6.45
2023-04-18T06:35:28.870Z,6.46
2023-04-18T06:36:00.214Z,6.48
2023-04-18T06:36:31.635Z,6.50
2023-04-18T06:37:03.024Z,6.52
2023-04-18T06:37:34.699Z,6.53
2023-04-18T06:38:06.182Z,6.54
2023-04-18T06:38:37.520Z,6.55
2023-04-18T06:39:08.965Z,6.57
2023-04-18T06:39:40.748Z,6.59
2023-04-18T06:40:12.540Z,6.62
2023-04-18T06:40:43.970Z,6.65
2023-04-18T06:41:15.801Z,6.65
2023-04-18T06:41:48.849Z,6.67
2023-04-18T06:42:22.215Z,6.68
2023-04-18T06:42:54.301Z,6.71
2023-04-18T06:43:25.691Z,6.72
2023-04-18T06:44:02.636Z,6.73
2023-04-18T06:44:36.246Z,6.76
2023-04-18T06:45:08.159Z,6.78
2023-04-18T06:45:39.713Z,6.79
2023-04-18T06:46:11.247Z,6.80
2023-04-18T06:46:42.714Z,6.83
2023-04-18T06:47:32.840Z,6.83
2023-04-18T06:48:05.173Z,6.84
2023-04-18T06:48:36.643Z,6.84
2023-04-18T06:49:08.118Z,6.85
2023-04-18T06:49:39.455Z,6.85
2023-04-18T06:50:11.138Z,6.84
2023-04-18T06:50:43.741Z,6.83
2023-04-18T06:51:15.301Z,6.84
2023-04-18T06:51:46.663Z,6.83
2023-04-18T06:52:18.027Z,6.84
2023-04-18T06:52:49.431Z,6.85
2023-04-18T06:53:20.934Z,6.87
2023-04-18T06:53:55.026Z,6.87
2023-04-18T06:54:26.890Z,6.89
2023-04-18T06:54:58.367Z,6.91
2023-04-18T06:55:30.000Z,6.92
2023-04-18T06:56:01.379Z,6.93
2023-04-18T06:56:35.875Z,6.92
2023-04-18T06:57:07.923Z,6.91
2023-04-18T06:57:42.871Z,6.91
2023-04-18T06:58:16.293Z,6.92
2023-04-18T06:58:48.516Z,6.92
2023-04-18T06:59:21.440Z,6.95
2023-04-18T06:59:52.871Z,6.98
2023-04-18T07:00:24.402Z,6.99
2023-04-18T07:00:56.011Z,7.00
2023-04-18T07:01:27.433Z,7.01
2023-04-18T07:01:58.919Z,7.03
2023-04-18T07:02:30.732Z,7.03
2023-04-18T07:03:06.246Z,7.06
2023-04-18T07:03:38.992Z,7.09
2023-04-18T07:04:10.637Z,7.11
2023-04-18T07:04:42.404Z,7.12
2023-04-18T07:05:14.221Z,7.14
2023-04-18T07:05:45.586Z,7.14
2023-04-18T07:06:17.025Z,7.14